Time;durP1;ratioP1;P1;durP2;ratioP2;P2;SDS_P1;SDS_P2;PMS_P1;PMS_P2;Temp;Humidity;BMP_temperature;BMP_pressure;BME280_temperature;BME280_humidity;BME280_pressure;Samples;Min_cycle;Max_cycle;Signal;HPM_P1;HPM_P2
2021/05/22 00:00:01;;;;;;;3.00;0.80;;;12.30;96.80;;;;;;4957112;28;20172;-80
2021/05/22 00:02:27;;;;;;;4.03;1.13;;;12.30;96.90;;;;;;4973804;28;20179;-80
2021/05/22 00:04:53;;;;;;;3.43;0.87;;;12.30;97.00;;;;;;4960338;28;20214;-80
2021/05/22 00:07:19;;;;;;;2.10;0.70;;;12.30;97.30;;;;;;4956278;28;20210;-80
2021/05/22 00:09:47;;;;;;;3.43;0.80;;;12.30;97.30;;;;;;4956402;28;20590;-80
2021/05/22 00:12:13;;;;;;;2.10;0.70;;;12.30;97.60;;;;;;4973594;28;20614;-80
2021/05/22 00:14:39;;;;;;;1.80;0.70;;;12.30;97.50;;;;;;4956250;28;20196;-80
2021/05/22 00:17:06;;;;;;;1.63;0.70;;;12.30;97.70;;;;;;4956227;28;20635;-80
2021/05/22 00:19:32;;;;;;;2.28;1.15;;;12.30;97.80;;;;;;4956357;28;20180;-80
2021/05/22 00:21:57;;;;;;;1.70;0.90;;;12.30;97.70;;;;;;4973643;28;20176;-80
2021/05/22 00:24:26;;;;;;;1.70;0.70;;;12.30;97.90;;;;;;5022270;23;20945;-82
2021/05/22 00:26:52;;;;;;;2.70;0.95;;;12.30;97.90;;;;;;4978053;28;20179;-82
2021/05/22 00:29:20;;;;;;;6.40;0.90;;;12.30;97.90;;;;;;4996121;28;20621;-82
2021/05/22 00:31:46;;;;;;;2.75;1.00;;;12.30;98.00;;;;;;4991683;28;20235;-83
2021/05/22 00:34:12;;;;;;;2.75;1.00;;;12.30;98.10;;;;;;4970578;28;20182;-82
2021/05/22 00:36:38;;;;;;;2.85;0.90;;;12.30;98.60;;;;;;5008297;28;20171;-82
2021/05/22 00:39:05;;;;;;;2.40;0.83;;;12.20;98.60;;;;;;4991842;28;20190;-82
2021/05/22 00:41:31;;;;;;;2.80;0.77;;;12.20;98.80;;;;;;4991348;28;20657;-82
2021/05/22 00:44:00;;;;;;;1.92;0.80;;;12.20;99.10;;;;;;5010032;28;20193;-82
2021/05/22 00:46:26;;;;;;;4.32;1.00;;;12.20;98.90;;;;;;4975013;28;20235;-82
2021/05/22 00:48:52;;;;;;;2.95;0.80;;;12.20;98.80;;;;;;5007533;28;20618;-82
2021/05/22 00:51:18;;;;;;;2.13;0.95;;;12.20;98.90;;;;;;4976814;28;20234;-82
2021/05/22 00:53:44;;;;;;;1.95;0.80;;;12.20;99.10;;;;;;5009130;28;20186;-82
2021/05/22 00:56:11;;;;;;;2.22;0.80;;;12.20;99.30;;;;;;4991055;28;20194;-83
2021/05/22 00:58:37;;;;;;;2.65;0.95;;;12.20;99.20;;;;;;4990282;28;20163;-82
2021/05/22 01:01:04;;;;;;;1.60;0.80;;;12.20;99.80;;;;;;4989460;28;20175;-82
2021/05/22 01:03:37;;;;;;;4.25;0.90;;;12.10;99.90;;;;;;5004422;28;20194;-82
2021/05/22 01:06:21;;;;;;;3.65;0.90;;;12.20;99.70;;;;;;4990251;28;20190;-82
2021/05/22 01:08:52;;;;;;;1.80;0.70;;;12.10;99.90;;;;;;5005850;28;20249;-82
2021/05/22 01:11:23;;;;;;;2.50;1.17;;;12.10;99.90;;;;;;4989616;28;20249;-82
2021/05/22 01:14:26;;;;;;;2.33;0.88;;;12.10;99.90;;;;;;5008337;28;20171;-82
2021/05/22 01:16:56;;;;;;;3.38;0.80;;;12.00;99.90;;;;;;4995520;28;20179;-82
2021/05/22 01:19:59;;;;;;;3.25;0.85;;;12.10;99.90;;;;;;4994859;28;20174;-83
2021/05/22 01:22:28;;;;;;;3.30;1.25;;;12.00;99.90;;;;;;4993885;28;20723;-82
2021/05/22 01:25:00;;;;;;;2.50;0.73;;;12.00;99.90;;;;;;5008533;28;20203;-82
2021/05/22 01:27:26;;;;;;;2.50;0.70;;;12.00;99.90;;;;;;4978324;28;20175;-82
2021/05/22 01:29:54;;;;;;;3.42;1.17;;;12.00;99.90;;;;;;5012494;28;20225;-83
2021/05/22 01:32:20;;;;;;;2.55;0.80;;;12.00;99.90;;;;;;4973293;28;20210;-83
2021/05/22 01:34:46;;;;;;;2.03;0.70;;;12.00;99.90;;;;;;5006015;28;20194;-82
2021/05/22 01:37:12;;;;;;;2.17;0.70;;;12.00;99.90;;;;;;4989276;28;20179;-82
2021/05/22 01:39:38;;;;;;;2.63;0.83;;;12.00;99.90;;;;;;5006990;28;20163;-82
2021/05/22 01:42:03;;;;;;;1.80;1.00;;;12.00;99.90;;;;;;4989331;28;20592;-82
2021/05/22 01:44:34;;;;;;;6.27;0.90;;;11.90;99.90;;;;;;4989306;28;20223;-82
2021/05/22 01:47:02;;;;;;;1.52;0.70;;;11.90;99.90;;;;;;4972595;28;20544;-82
2021/05/22 01:49:29;;;;;;;2.88;0.82;;;11.90;99.90;;;;;;4972070;28;20647;-82
2021/05/22 01:51:55;;;;;;;2.60;0.80;;;11.90;99.90;;;;;;4988517;28;20207;-82
2021/05/22 01:54:23;;;;;;;4.22;0.90;;;11.80;99.90;;;;;;5007694;28;20191;-82
2021/05/22 01:56:50;;;;;;;2.70;0.80;;;11.80;99.90;;;;;;5005934;28;20227;-82
2021/05/22 01:59:17;;;;;;;5.97;0.70;;;11.80;99.90;;;;;;5006584;28;20175;-82
2021/05/22 02:01:48;;;;;;;2.95;0.70;;;11.80;99.90;;;;;;4991416;28;20159;-82
2021/05/22 02:04:16;;;;;;;2.25;0.70;;;11.80;99.90;;;;;;4994133;28;20171;-81
2021/05/22 02:06:44;;;;;;;2.53;0.68;;;11.70;99.90;;;;;;4993478;28;20172;-82
2021/05/22 02:09:13;;;;;;;2.35;0.77;;;11.70;99.90;;;;;;4997187;28;20747;-82
2021/05/22 02:11:42;;;;;;;1.42;0.60;;;11.70;99.90;;;;;;5007840;28;20222;-82
2021/05/22 02:14:10;;;;;;;2.10;0.70;;;11.60;99.90;;;;;;5009526;28;20171;-82
2021/05/22 02:16:42;;;;;;;4.85;0.95;;;11.60;99.90;;;;;;5009099;28;20163;-82
2021/05/22 02:19:09;;;;;;;1.65;0.73;;;11.60;99.90;;;;;;4975838;28;20194;-84
2021/05/22 02:21:38;;;;;;;3.05;0.85;;;11.60;99.90;;;;;;4993402;28;20178;-82
2021/05/22 02:24:04;;;;;;;2.55;0.73;;;11.60;99.90;;;;;;4993749;28;20190;-82
2021/05/22 02:26:30;;;;;;;6.10;0.88;;;11.50;99.90;;;;;;4979614;28;20190;-82
2021/05/22 02:28:57;;;;;;;3.10;0.70;;;11.50;99.90;;;;;;5012819;28;20218;-82
2021/05/22 02:31:27;;;;;;;2.00;0.68;;;11.50;99.90;;;;;;5001295;28;20207;-82
2021/05/22 02:33:56;;;;;;;2.03;0.77;;;11.50;99.90;;;;;;5010634;28;20170;-82
2021/05/22 02:36:23;;;;;;;3.08;0.80;;;11.50;99.90;;;;;;5008923;28;20195;-82
2021/05/22 02:38:51;;;;;;;1.92;0.57;;;11.50;99.90;;;;;;5010430;28;20254;-82
2021/05/22 02:41:18;;;;;;;1.80;0.70;;;11.50;99.90;;;;;;5013007;28;20258;-83
2021/05/22 02:43:49;;;;;;;2.08;0.70;;;11.40;99.90;;;;;;5008532;28;20171;-82
2021/05/22 02:46:18;;;;;;;1.35;0.60;;;11.50;99.90;;;;;;4992220;28;20191;-82
2021/05/22 02:48:45;;;;;;;4.32;0.80;;;11.50;99.90;;;;;;5012137;28;20162;-83
2021/05/22 02:51:13;;;;;;;2.50;0.68;;;11.40;99.90;;;;;;5009832;28;20679;-82
2021/05/22 02:53:42;;;;;;;2.03;0.60;;;11.40;99.90;;;;;;4993607;28;20171;-82
2021/05/22 02:56:09;;;;;;;3.28;1.30;;;11.40;99.90;;;;;;4991410;28;20194;-82
2021/05/22 02:58:36;;;;;;;3.50;0.70;;;11.40;99.90;;;;;;4990774;28;20205;-82
2021/05/22 03:01:06;;;;;;;3.17;0.80;;;11.40;99.90;;;;;;5008748;28;20175;-82
2021/05/22 03:03:33;;;;;;;2.63;0.80;;;11.40;99.90;;;;;;4992047;28;20181;-82
2021/05/22 03:06:04;;;;;;;4.10;1.02;;;11.40;99.90;;;;;;4992295;28;20254;-82
2021/05/22 03:08:40;;;;;;;4.43;0.80;;;11.40;99.90;;;;;;5007596;28;20193;-82
2021/05/22 03:11:06;;;;;;;2.55;0.70;;;11.40;99.90;;;;;;5006026;28;20234;-82
2021/05/22 03:13:32;;;;;;;3.55;1.00;;;11.40;99.90;;;;;;4989598;28;20213;-82
2021/05/22 03:15:57;;;;;;;2.40;0.93;;;11.40;99.90;;;;;;4992950;28;20210;-82
2021/05/22 03:18:23;;;;;;;1.93;0.60;;;11.40;99.90;;;;;;5009933;28;20167;-82
2021/05/22 03:20:49;;;;;;;3.03;0.80;;;11.40;99.90;;;;;;4989864;28;20237;-82
2021/05/22 03:23:15;;;;;;;5.00;0.80;;;11.40;99.90;;;;;;4991858;28;20190;-82
2021/05/22 03:25:41;;;;;;;3.23;0.90;;;11.40;99.90;;;;;;5007849;28;20202;-82
2021/05/22 03:28:07;;;;;;;1.50;0.60;;;11.40;99.90;;;;;;5007698;28;20167;-83
2021/05/22 03:30:32;;;;;;;3.33;0.83;;;11.40;99.90;;;;;;4991297;28;20175;-82
2021/05/22 03:32:58;;;;;;;6.00;0.80;;;11.40;99.90;;;;;;5008030;28;20206;-82
2021/05/22 03:35:24;;;;;;;3.80;0.70;;;11.40;99.90;;;;;;5006963;28;20556;-82
2021/05/22 03:37:49;;;;;;;4.30;0.70;;;11.40;99.90;;;;;;5005767;28;20167;-82
2021/05/22 03:40:15;;;;;;;3.37;0.77;;;11.40;99.90;;;;;;4989116;28;20179;-82
2021/05/22 03:42:41;;;;;;;3.43;1.30;;;11.40;99.90;;;;;;4991885;28;20185;-82
2021/05/22 03:45:07;;;;;;;2.27;0.80;;;11.40;99.90;;;;;;5007248;28;20664;-82
2021/05/22 03:47:33;;;;;;;3.47;0.80;;;11.40;99.90;;;;;;5005572;28;20179;-82
2021/05/22 03:49:59;;;;;;;2.30;0.70;;;11.40;99.90;;;;;;5006071;28;20179;-82
2021/05/22 03:52:25;;;;;;;4.43;1.00;;;11.40;99.90;;;;;;5006303;28;20857;-82
2021/05/22 03:54:50;;;;;;;4.57;0.70;;;11.40;99.90;;;;;;5009744;28;20183;-83
2021/05/22 03:57:16;;;;;;;2.53;0.77;;;11.40;99.90;;;;;;4988595;28;20181;-82
2021/05/22 03:59:42;;;;;;;2.27;0.80;;;11.50;99.90;;;;;;5005959;28;20190;-82
2021/05/22 04:02:07;;;;;;;2.83;0.80;;;11.50;99.90;;;;;;5008672;28;20179;-82
2021/05/22 04:04:33;;;;;;;2.67;0.80;;;11.50;99.90;;;;;;4991001;28;20207;-83
2021/05/22 04:06:59;;;;;;;3.00;0.90;;;11.60;99.90;;;;;;4991386;28;20167;-82
2021/05/22 04:09:24;;;;;;;4.07;1.20;;;11.60;99.90;;;;;;5008289;28;20183;-82
2021/05/22 04:11:50;;;;;;;2.73;0.80;;;11.60;99.90;;;;;;5007245;28;20207;-82
2021/05/22 04:14:16;;;;;;;4.87;0.87;;;11.70;99.90;;;;;;4991057;28;20167;-82
2021/05/22 04:16:42;;;;;;;8.00;0.83;;;11.80;99.90;;;;;;4992230;28;20171;-83
2021/05/22 04:19:07;;;;;;;3.40;0.80;;;11.90;99.90;;;;;;5008535;28;20571;-83
2021/05/22 04:21:33;;;;;;;2.60;1.30;;;12.00;99.90;;;;;;4991847;28;20639;-82
2021/05/22 04:23:59;;;;;;;4.30;0.70;;;12.10;99.90;;;;;;4993523;28;20175;-82
2021/05/22 04:26:25;;;;;;;6.43;1.00;;;12.20;99.90;;;;;;4973634;28;20211;-82
2021/05/22 04:28:50;;;;;;;4.93;0.83;;;12.30;99.90;;;;;;4988231;28;20171;-83
2021/05/22 04:31:16;;;;;;;3.13;0.70;;;12.40;99.90;;;;;;4971765;28;20261;-82
2021/05/22 04:33:42;;;;;;;2.87;0.70;;;12.40;99.90;;;;;;4960407;28;20590;-82
2021/05/22 04:36:09;;;;;;;3.22;1.20;;;12.50;99.90;;;;;;5010121;28;20202;-83
2021/05/22 04:38:34;;;;;;;2.90;1.00;;;12.60;99.90;;;;;;4990962;28;20706;-82
2021/05/22 04:41:01;;;;;;;2.23;0.80;;;12.70;99.90;;;;;;4991916;28;20178;-83
2021/05/22 04:43:26;;;;;;;2.97;0.77;;;12.70;99.90;;;;;;5011378;28;20179;-82
2021/05/22 04:45:52;;;;;;;3.30;0.77;;;12.80;99.90;;;;;;4993634;28;20206;-82
2021/05/22 04:48:18;;;;;;;2.13;0.83;;;12.90;99.90;;;;;;5012401;28;20151;-82
2021/05/22 04:50:43;;;;;;;5.50;1.50;;;13.00;99.90;;;;;;4978888;28;20243;-83
2021/05/22 04:53:09;;;;;;;3.40;0.70;;;13.00;99.90;;;;;;5012457;28;20198;-83
2021/05/22 04:55:35;;;;;;;4.93;0.90;;;13.10;99.90;;;;;;4996190;28;20199;-82
2021/05/22 04:58:01;;;;;;;2.23;0.70;;;13.20;99.90;;;;;;5014303;28;20254;-82
2021/05/22 05:00:27;;;;;;;2.07;0.87;;;13.20;99.90;;;;;;4981050;28;20162;-83
2021/05/22 05:02:54;;;;;;;4.27;1.00;;;13.30;99.90;;;;;;5012944;28;20649;-82
2021/05/22 05:05:20;;;;;;;3.60;0.80;;;13.30;99.90;;;;;;5014051;28;20195;-83
2021/05/22 05:07:45;;;;;;;3.33;0.80;;;13.30;99.90;;;;;;5017974;28;20295;-82
2021/05/22 05:10:12;;;;;;;1.60;0.80;;;13.40;99.90;;;;;;5012485;28;20254;-83
2021/05/22 05:12:38;;;;;;;3.78;0.85;;;13.40;99.90;;;;;;5009720;28;20231;-82
2021/05/22 05:15:05;;;;;;;1.85;0.70;;;13.50;99.90;;;;;;5008983;28;20214;-83
2021/05/22 05:17:32;;;;;;;4.43;1.20;;;13.60;99.90;;;;;;5008603;28;20255;-83
2021/05/22 05:19:58;;;;;;;3.97;1.25;;;13.60;99.90;;;;;;5008129;28;20167;-82
2021/05/22 05:22:27;;;;;;;6.60;0.90;;;13.70;99.90;;;;;;5009368;28;20163;-83
2021/05/22 05:24:54;;;;;;;4.10;0.80;;;13.80;99.90;;;;;;5009382;28;20680;-82
2021/05/22 05:27:22;;;;;;;3.22;0.70;;;13.90;99.90;;;;;;5010185;28;20213;-83
2021/05/22 05:29:48;;;;;;;2.88;0.73;;;13.90;99.90;;;;;;4992461;28;20230;-83
2021/05/22 05:32:14;;;;;;;4.28;1.10;;;14.00;99.90;;;;;;4991503;28;20253;-82
2021/05/22 05:34:41;;;;;;;3.87;0.80;;;14.10;99.90;;;;;;4989731;28;20602;-83
2021/05/22 05:37:10;;;;;;;4.32;1.10;;;14.10;99.90;;;;;;5004602;28;20639;-82
2021/05/22 05:39:37;;;;;;;3.67;0.90;;;14.20;99.90;;;;;;5007143;28;20179;-83
2021/05/22 05:42:03;;;;;;;5.90;0.98;;;14.40;99.90;;;;;;5006869;28;20175;-83
2021/05/22 05:44:29;;;;;;;2.58;0.70;;;14.40;99.90;;;;;;4974729;28;20195;-83
2021/05/22 05:46:55;;;;;;;3.67;0.60;;;14.60;99.90;;;;;;4974016;28;20187;-83
2021/05/22 05:49:22;;;;;;;2.00;0.70;;;14.80;99.90;;;;;;5005351;28;20586;-83
2021/05/22 05:51:47;;;;;;;2.58;0.70;;;14.90;99.90;;;;;;5007889;28;20226;-83
2021/05/22 05:54:13;;;;;;;2.50;0.70;;;15.00;99.90;;;;;;4989832;28;20168;-83
2021/05/22 05:56:39;;;;;;;1.60;0.57;;;15.10;99.90;;;;;;4986953;28;20602;-83
2021/05/22 05:59:08;;;;;;;1.58;0.50;;;15.20;99.90;;;;;;4997487;28;20199;-83
2021/05/22 06:01:37;;;;;;;2.60;0.60;;;15.30;99.90;;;;;;4991646;28;20178;-83
2021/05/22 06:04:05;;;;;;;3.60;0.60;;;15.40;99.90;;;;;;4991730;28;20168;-83
2021/05/22 06:06:31;;;;;;;1.20;0.40;;;15.50;99.90;;;;;;4975701;28;20219;-83
2021/05/22 06:08:57;;;;;;;1.77;0.60;;;15.60;99.90;;;;;;4975140;28;20671;-84
2021/05/22 06:11:24;;;;;;;2.50;0.50;;;15.70;99.90;;;;;;4991692;28;20227;-84
2021/05/22 06:13:50;;;;;;;1.63;0.50;;;15.80;99.90;;;;;;4992542;28;20567;-84
2021/05/22 06:16:23;;;;;;;1.77;0.53;;;16.00;99.90;;;;;;4992410;28;20641;-84
2021/05/22 06:18:49;;;;;;;2.70;0.50;;;16.10;99.90;;;;;;4991533;28;20935;-83
2021/05/22 06:21:15;;;;;;;2.10;0.50;;;16.50;99.90;;;;;;4959852;28;20575;-84
2021/05/22 06:23:44;;;;;;;2.27;0.50;;;16.90;99.90;;;;;;4992964;28;20168;-84
2021/05/22 06:26:10;;;;;;;1.63;0.50;;;17.40;99.90;;;;;;4962763;28;20725;-79
2021/05/22 06:28:36;;;;;;;4.50;0.70;;;18.00;99.90;;;;;;4975314;28;20678;-78
2021/05/22 06:31:02;;;;;;;1.97;0.50;;;18.50;99.90;;;;;;4958162;28;20627;-79
2021/05/22 06:33:34;;;;;;;3.57;0.50;;;18.80;99.90;;;;;;4975539;28;20579;-79
2021/05/22 06:36:00;;;;;;;1.93;0.57;;;19.00;99.90;;;;;;4975403;28;20615;-79
2021/05/22 06:38:26;;;;;;;1.30;0.43;;;19.10;99.70;;;;;;4956916;28;20573;-79
2021/05/22 06:40:53;;;;;;;1.63;0.50;;;19.10;98.90;;;;;;4958709;28;20168;-79
2021/05/22 06:43:19;;;;;;;1.67;0.60;;;19.00;98.10;;;;;;4942951;28;20968;-79
2021/05/22 06:45:55;;;;;;;1.63;0.50;;;18.90;97.60;;;;;;4975280;28;20598;-79
2021/05/22 06:48:21;;;;;;;2.17;0.60;;;18.90;97.60;;;;;;4974883;28;20603;-79
2021/05/22 06:50:46;;;;;;;1.80;0.53;;;18.80;97.20;;;;;;4957884;28;20617;-79
2021/05/22 06:53:12;;;;;;;1.50;0.50;;;18.70;97.10;;;;;;4941970;28;20207;-79
2021/05/22 06:55:38;;;;;;;1.97;0.60;;;18.60;96.90;;;;;;4975011;28;20184;-79
2021/05/22 06:58:06;;;;;;;2.00;0.50;;;18.50;96.50;;;;;;4941359;28;20187;-79
2021/05/22 07:00:32;;;;;;;3.00;0.60;;;18.40;95.90;;;;;;4957912;28;20163;-78
2021/05/22 07:02:58;;;;;;;1.73;0.60;;;18.20;95.50;;;;;;4974856;28;20666;-79
2021/05/22 07:05:23;;;;;;;1.90;0.60;;;18.00;95.40;;;;;;4957500;28;20777;-78
2021/05/22 07:07:49;;;;;;;4.03;1.07;;;17.90;95.00;;;;;;4974641;28;20175;-78
2021/05/22 07:10:15;;;;;;;2.30;0.57;;;17.60;95.00;;;;;;4974591;28;20164;-78
2021/05/22 07:12:41;;;;;;;1.50;0.50;;;17.40;95.00;;;;;;4957349;28;20199;-78
2021/05/22 07:15:08;;;;;;;2.30;0.53;;;17.10;95.10;;;;;;4974670;28;20605;-78
2021/05/22 07:17:34;;;;;;;1.63;0.60;;;16.90;95.60;;;;;;4957193;28;20927;-78
2021/05/22 07:20:00;;;;;;;1.90;0.53;;;16.60;95.40;;;;;;4941918;28;20575;-78
2021/05/22 07:22:26;;;;;;;2.50;0.60;;;16.30;95.50;;;;;;4975032;28;20637;-78
2021/05/22 07:24:53;;;;;;;1.50;0.60;;;16.00;95.70;;;;;;4974981;28;20610;-78
2021/05/22 07:27:19;;;;;;;1.63;0.50;;;15.70;95.90;;;;;;4976050;28;20674;-78
2021/05/22 07:29:47;;;;;;;1.98;0.60;;;15.50;96.30;;;;;;4976630;28;20195;-78
2021/05/22 07:32:13;;;;;;;1.33;0.50;;;15.20;96.60;;;;;;4978023;28;20208;-78
2021/05/22 07:34:39;;;;;;;3.38;0.60;;;15.10;97.20;;;;;;4981025;28;20283;-78
2021/05/22 07:37:05;;;;;;;2.00;0.60;;;14.90;97.60;;;;;;4962210;28;20675;-78
2021/05/22 07:39:34;;;;;;;1.20;0.50;;;14.90;98.10;;;;;;4974570;28;20259;-78
2021/05/22 07:42:00;;;;;;;1.63;0.50;;;14.80;98.50;;;;;;4957040;28;20183;-78
2021/05/22 07:44:26;;;;;;;1.52;0.50;;;14.80;98.80;;;;;;4941272;28;20191;-78
2021/05/22 07:46:52;;;;;;;1.80;0.50;;;14.80;99.20;;;;;;4973936;28;20179;-78
2021/05/22 07:49:18;;;;;;;1.60;0.50;;;14.80;99.30;;;;;;4956894;28;20583;-78
2021/05/22 07:51:45;;;;;;;1.77;0.60;;;14.80;99.40;;;;;;4957443;28;20633;-78
2021/05/22 07:54:11;;;;;;;1.30;0.70;;;14.70;99.40;;;;;;4962566;28;20266;-77
2021/05/22 07:56:37;;;;;;;1.38;0.50;;;14.70;99.60;;;;;;4967402;28;20196;-78
2021/05/22 07:59:03;;;;;;;3.10;0.93;;;14.70;99.80;;;;;;4982704;28;20644;-77
2021/05/22 08:01:29;;;;;;;3.50;1.20;;;14.70;99.90;;;;;;4979923;28;20214;-78
2021/05/22 08:03:55;;;;;;;1.50;0.50;;;14.70;99.90;;;;;;4977449;28;20586;-78
2021/05/22 08:06:20;;;;;;;2.13;0.60;;;14.70;99.90;;;;;;4961764;28;20611;-77
2021/05/22 08:08:47;;;;;;;1.53;0.60;;;14.70;99.90;;;;;;4978263;28;20172;-77
2021/05/22 08:11:13;;;;;;;2.75;0.75;;;14.80;99.90;;;;;;4962483;28;20203;-78
2021/05/22 08:13:40;;;;;;;1.50;0.60;;;14.80;99.90;;;;;;4982114;28;20214;-78
2021/05/22 08:16:06;;;;;;;2.60;0.90;;;14.80;99.90;;;;;;4959171;28;20196;-77
2021/05/22 08:18:32;;;;;;;1.42;0.60;;;14.90;99.90;;;;;;4956760;28;20537;-77
2021/05/22 08:20:58;;;;;;;1.40;0.50;;;14.90;99.90;;;;;;4973972;28;20258;-77
2021/05/22 08:23:24;;;;;;;1.67;0.60;;;14.90;99.90;;;;;;4973541;28;20194;-78
2021/05/22 08:25:49;;;;;;;1.13;0.50;;;14.90;99.90;;;;;;4956774;28;20246;-78
2021/05/22 08:28:21;;;;;;;1.60;0.60;;;14.90;99.90;;;;;;4956354;28;20579;-77
2021/05/22 08:30:48;;;;;;;1.45;0.70;;;14.90;99.90;;;;;;4956337;28;20218;-77
2021/05/22 08:33:14;;;;;;;2.58;0.70;;;15.00;99.90;;;;;;4973563;28;20222;-77
2021/05/22 08:35:41;;;;;;;2.20;0.60;;;15.00;99.90;;;;;;4956168;28;20212;-77
2021/05/22 08:38:07;;;;;;;1.70;0.83;;;15.10;99.90;;;;;;4973741;28;20226;-77
2021/05/22 08:40:33;;;;;;;2.37;0.60;;;15.10;99.90;;;;;;4973552;28;20575;-77
2021/05/22 08:42:59;;;;;;;1.33;0.57;;;15.20;99.90;;;;;;4973904;28;20514;-77
2021/05/22 08:45:25;;;;;;;2.20;0.60;;;15.30;99.90;;;;;;4956691;28;20609;-77
2021/05/22 08:47:53;;;;;;;1.93;0.60;;;15.50;99.90;;;;;;4973829;28;20167;-77
2021/05/22 08:50:20;;;;;;;2.10;0.68;;;15.60;99.90;;;;;;4957408;28;20175;-77
2021/05/22 08:52:46;;;;;;;1.67;0.60;;;15.70;99.90;;;;;;4974855;28;20198;-77
2021/05/22 08:55:13;;;;;;;2.30;0.60;;;15.80;99.90;;;;;;4957218;28;20556;-76
2021/05/22 08:57:39;;;;;;;1.30;0.60;;;15.80;99.90;;;;;;4974102;28;20176;-77
2021/05/22 09:00:09;;;;;;;1.30;0.60;;;15.80;99.90;;;;;;4956816;28;20541;-77
2021/05/22 09:02:34;;;;;;;1.20;0.50;;;15.80;99.90;;;;;;4956963;28;20175;-77
2021/05/22 09:05:03;;;;;;;1.93;0.50;;;15.80;99.90;;;;;;4963244;28;20703;-76
2021/05/22 09:07:30;;;;;;;1.85;0.50;;;15.80;99.90;;;;;;4974637;28;20545;-77
2021/05/22 09:10:09;;;;;;;1.63;0.50;;;15.80;99.90;;;;;;4957773;28;20284;-77
2021/05/22 09:12:40;;;;;;;2.72;0.70;;;15.80;99.90;;;;;;4957565;28;20210;-77
2021/05/22 09:15:09;;;;;;;1.20;0.50;;;15.70;99.90;;;;;;4974481;28;20179;-77
2021/05/22 09:17:36;;;;;;;2.28;0.70;;;15.60;99.90;;;;;;4957143;28;20230;-76
2021/05/22 09:20:16;;;;;;;1.42;0.50;;;15.60;99.90;;;;;;4957074;28;20536;-76
2021/05/22 09:22:42;;;;;;;1.55;0.60;;;15.60;99.90;;;;;;4957590;28;20715;-77
2021/05/22 09:25:09;;;;;;;2.55;0.60;;;15.50;99.90;;;;;;4974281;28;20204;-77
2021/05/22 09:27:40;;;;;;;2.35;0.60;;;15.50;99.90;;;;;;4974097;28;20176;-76
2021/05/22 09:30:09;;;;;;;2.75;0.68;;;15.50;99.90;;;;;;4974609;28;20171;-76
2021/05/22 09:32:35;;;;;;;1.20;0.50;;;15.50;99.90;;;;;;4956401;28;20703;-76
2021/05/22 09:35:06;;;;;;;1.20;0.50;;;15.50;99.90;;;;;;4977026;28;20195;-76
2021/05/22 09:37:50;;;;;;;1.10;0.50;;;15.50;99.90;;;;;;4943679;28;20571;-77
2021/05/22 09:40:26;;;;;;;1.57;0.60;;;15.50;99.90;;;;;;4960074;28;20575;-76
2021/05/22 09:42:52;;;;;;;2.13;0.70;;;15.50;99.90;;;;;;4959661;28;20585;-77
2021/05/22 09:45:22;;;;;;;1.77;0.60;;;15.50;99.90;;;;;;4977343;28;20199;-77
2021/05/22 09:47:48;;;;;;;2.17;0.70;;;15.50;99.90;;;;;;4977708;28;20175;-77
2021/05/22 09:50:53;;;;;;;1.77;0.50;;;15.50;99.90;;;;;;4944023;28;20583;-77
2021/05/22 09:53:31;;;;;;;1.37;0.80;;;15.50;99.90;;;;;;4972017;28;20721;-77
2021/05/22 09:56:18;;;;;;;1.60;0.50;;;15.50;99.90;;;;;;4976337;28;20602;-78
2021/05/22 09:58:53;;;;;;;1.10;0.50;;;15.50;99.90;;;;;;4958826;28;20183;-78
2021/05/22 10:01:22;;;;;;;1.10;0.60;;;15.50;99.90;;;;;;4958919;28;20175;-78
2021/05/22 10:03:48;;;;;;;2.03;0.60;;;15.50;99.90;;;;;;4976149;28;20175;-78
2021/05/22 10:06:15;;;;;;;1.23;0.40;;;15.60;99.90;;;;;;4958654;28;20599;-78
2021/05/22 10:08:43;;;;;;;3.45;0.52;;;15.70;99.90;;;;;;4975868;28;20671;-78
2021/05/22 10:11:09;;;;;;;1.40;0.50;;;15.80;99.90;;;;;;4976110;28;20608;-78
2021/05/22 10:13:38;;;;;;;1.40;0.43;;;15.80;99.90;;;;;;4975940;28;20160;-78
2021/05/22 10:16:06;;;;;;;1.97;0.67;;;15.90;99.90;;;;;;4975875;28;20634;-78
2021/05/22 10:18:32;;;;;;;2.37;0.50;;;16.00;99.90;;;;;;4975531;28;21172;-78
2021/05/22 10:21:01;;;;;;;2.17;0.53;;;16.10;99.90;;;;;;4975911;28;20566;-78
2021/05/22 10:23:27;;;;;;;1.80;0.47;;;16.10;99.90;;;;;;4975863;28;20674;-78
2021/05/22 10:25:54;;;;;;;1.60;0.80;;;16.10;99.90;;;;;;4975712;28;20990;-78
2021/05/22 10:28:21;;;;;;;2.43;0.80;;;16.20;99.90;;;;;;4975264;28;20579;-78
2021/05/22 10:30:47;;;;;;;1.60;0.70;;;16.20;99.90;;;;;;4975476;28;20666;-78
2021/05/22 10:33:15;;;;;;;1.10;0.50;;;16.30;99.90;;;;;;4975486;28;20595;-78
2021/05/22 10:35:48;;;;;;;2.40;0.60;;;16.40;99.90;;;;;;4975572;28;20642;-79
2021/05/22 10:38:32;;;;;;;1.50;0.50;;;16.40;99.90;;;;;;4957937;28;20575;-79
2021/05/22 10:40:59;;;;;;;3.70;0.60;;;16.50;99.90;;;;;;4975510;28;20671;-77
2021/05/22 10:43:53;;;;;;;1.30;0.50;;;16.60;99.90;;;;;;4975417;28;20603;-78
2021/05/22 10:46:21;;;;;;;3.20;0.57;;;16.60;99.70;;;;;;4974396;28;20599;-79
2021/05/22 10:48:59;;;;;;;1.70;0.60;;;16.80;99.90;;;;;;4957956;28;20625;-78
2021/05/22 10:51:28;;;;;;;2.03;0.77;;;16.90;99.80;;;;;;4975154;28;20660;-78
2021/05/22 10:54:10;;;;;;;1.60;0.50;;;17.00;99.70;;;;;;4975134;28;20563;-78
2021/05/22 10:57:03;;;;;;;1.20;0.57;;;17.10;98.50;;;;;;4978383;28;20657;-77
2021/05/22 10:59:29;;;;;;;2.90;0.53;;;17.30;99.40;;;;;;4975806;28;20614;-78
2021/05/22 11:01:55;;;;;;;2.50;0.60;;;17.40;99.40;;;;;;4975111;28;20567;-78
2021/05/22 11:04:23;;;;;;;1.17;0.60;;;17.50;99.20;;;;;;4975047;28;20233;-78
2021/05/22 11:06:55;;;;;;;1.47;0.50;;;17.60;99.00;;;;;;4984279;28;20172;-83
2021/05/22 11:09:27;;;;;;;4.30;0.70;;;17.60;98.70;;;;;;4986930;28;20567;-83
2021/05/22 11:11:58;;;;;;;2.07;0.70;;;17.70;98.00;;;;;;4971759;28;20610;-83
2021/05/22 11:14:37;;;;;;;1.60;0.53;;;17.70;98.00;;;;;;4990538;28;20599;-83
2021/05/22 11:17:21;;;;;;;1.40;0.60;;;17.70;97.70;;;;;;4989411;28;20678;-83
2021/05/22 11:20:00;;;;;;;4.80;0.80;;;17.60;97.60;;;;;;4970947;28;20576;-83
2021/05/22 11:22:38;;;;;;;2.93;0.80;;;17.60;97.10;;;;;;4984234;28;20916;-83
2021/05/22 11:25:12;;;;;;;2.17;0.60;;;17.60;96.90;;;;;;4982898;28;20630;-85
2021/05/22 11:27:48;;;;;;;1.50;0.63;;;17.60;97.30;;;;;;4971326;28;20618;-85
2021/05/22 11:30:18;;;;;;;1.73;0.80;;;17.60;97.20;;;;;;4984197;28;20609;-84
2021/05/22 11:32:57;;;;;;;1.80;0.60;;;17.50;97.00;;;;;;4968420;28;20637;-84
2021/05/22 11:35:30;;;;;;;1.77;0.63;;;17.50;96.90;;;;;;4948706;28;20599;-84
2021/05/22 11:38:18;;;;;;;1.50;0.50;;;17.50;96.90;;;;;;4980874;28;20563;-84
2021/05/22 11:40:44;;;;;;;1.30;0.50;;;17.40;96.80;;;;;;4982699;28;20738;-85
2021/05/22 11:43:19;;;;;;;2.07;0.57;;;17.40;97.20;;;;;;4964866;28;20647;-84
2021/05/22 11:45:48;;;;;;;2.60;0.70;;;17.40;97.20;;;;;;4978691;28;20610;-85
2021/05/22 11:48:45;;;;;;;3.20;0.50;;;17.40;97.20;;;;;;4980214;28;20567;-84
2021/05/22 11:51:33;;;;;;;1.53;0.50;;;17.40;96.90;;;;;;4978839;28;21158;-85
2021/05/22 11:54:04;;;;;;;6.40;0.83;;;17.40;96.70;;;;;;4961600;28;20575;-84
2021/05/22 11:56:33;;;;;;;1.87;0.50;;;17.30;96.90;;;;;;4983319;28;20568;-85
2021/05/22 11:59:00;;;;;;;2.13;0.60;;;17.30;97.10;;;;;;4980754;28;20575;-84
2021/05/22 12:01:32;;;;;;;5.57;1.00;;;17.20;97.20;;;;;;4984611;28;20576;-84
2021/05/22 12:04:10;;;;;;;3.00;1.00;;;17.10;97.20;;;;;;4966120;28;20587;-84
2021/05/22 12:06:41;;;;;;;2.50;1.07;;;17.00;97.50;;;;;;4967941;28;20578;-84
2021/05/22 12:09:15;;;;;;;3.13;0.80;;;16.90;97.30;;;;;;4983040;28;20567;-84
2021/05/22 12:11:59;;;;;;;2.50;0.80;;;16.80;97.60;;;;;;4980785;28;20643;-84
2021/05/22 12:14:39;;;;;;;2.57;1.00;;;16.70;97.50;;;;;;4980518;28;20603;-84
2021/05/22 12:17:07;;;;;;;7.63;3.07;;;16.50;97.60;;;;;;4962181;28;20584;-84
2021/05/22 12:19:51;;;;;;;7.80;3.90;;;16.50;97.80;;;;;;5157961;27;20701;-83
2021/05/22 12:22:25;;;;;;;5.17;2.80;;;16.50;98.00;;;;;;5156588;27;20235;-82
2021/05/22 12:24:54;;;;;;;3.13;1.93;;;16.50;98.20;;;;;;5158033;27;20894;-78
2021/05/22 12:27:20;;;;;;;3.83;1.07;;;16.50;98.10;;;;;;5150182;27;21133;-78
2021/05/22 12:29:52;;;;;;;3.83;1.00;;;16.50;98.10;;;;;;5149236;27;20583;-78
2021/05/22 12:32:18;;;;;;;2.57;0.80;;;16.50;98.00;;;;;;5149103;27;20608;-78
2021/05/22 12:34:44;;;;;;;3.73;0.70;;;16.60;98.10;;;;;;5150072;27;20584;-78
2021/05/22 12:37:18;;;;;;;2.23;0.60;;;16.60;98.20;;;;;;5131342;27;21033;-78
2021/05/22 12:39:49;;;;;;;2.30;0.70;;;16.60;98.20;;;;;;5149154;27;21034;-78
2021/05/22 12:42:26;;;;;;;4.00;0.80;;;16.70;98.30;;;;;;5150142;27;20595;-78
2021/05/22 12:44:55;;;;;;;2.07;0.60;;;16.70;98.10;;;;;;5148893;27;20607;-78
2021/05/22 12:47:23;;;;;;;4.63;0.93;;;16.70;98.20;;;;;;5149651;27;20952;-78
2021/05/22 12:49:54;;;;;;;2.53;0.60;;;16.80;98.30;;;;;;5150080;27;20612;-78
2021/05/22 12:52:20;;;;;;;3.27;0.80;;;16.80;98.20;;;;;;5150039;27;20983;-78
2021/05/22 12:54:46;;;;;;;1.70;0.80;;;16.90;98.10;;;;;;5149798;27;20595;-79